Gulbeniz A — TCZK8 — position and weather

sailwx.info

Track history (hours):
 
Tides and Currents Weather Stations Pressure Air Temp Water Temp Dewpoint Dewpoint Depression Visibility Wind Speed Wind Dir Waves Ship Positions

Gulbeniz A

Last reported at 2017-Mar-23 18:12 UTC. Time now 2017-Mar-24 08:11 UTC.
Position N 37°05' E 013°21'.

Length 210 m; draft 10.7 m.

Type: Ship (hazmat cat A). MMSI: 271042493.

Date/timePositionNaut miles runAvg speedWind from/ knotsBaromVisibWave heightAir tempDewpointWater temp
2017-Mar-23 18:12N 37°05' E 013°21'812.3
2017-Mar-23 17:33N 37°01' E 013°30'1212.3
2017-Mar-23 16:33N 36°56' E 013°44'1313.2
2017-Mar-23 15:33N 36°51' E 013°59'1313.0
2017-Mar-23 14:33N 36°45' E 014°14'1312.6
2017-Mar-23 13:34N 36°40' E 014°28'1312.6
2017-Mar-23 12:33N 36°38' E 014°44'1312.7
2017-Mar-23 11:33N 36°35' E 014°59'42711.8
2017-Mar-21 23:20N 37°15' E 023°51'1214.7
2017-Mar-21 22:33N 37°25' E 023°59'1814.7
2017-Mar-21 21:19N 37°41' E 024°11'1114.4
2017-Mar-21 20:33N 37°48' E 024°21'  
Track history (hours):
 
Tides and Currents Weather Stations Pressure Air Temp Water Temp Dewpoint Dewpoint Depression Visibility Wind Speed Wind Dir Waves Ship Positions

Gulbeniz A

Last reported at 2017-Mar-23 18:12 UTC. Time now 2017-Mar-24 08:11 UTC.
Position N 37°05' E 013°21'.

Length 210 m; draft 10.7 m.

Type: Ship (hazmat cat A). MMSI: 271042493.

Date/timePositionNaut miles runAvg speedWind from/ knotsBaromVisibWave heightAir tempDewpointWater temp
2017-Mar-23 18:12N 37°05' E 013°21'812.3
2017-Mar-23 17:33N 37°01' E 013°30'1212.3
2017-Mar-23 16:33N 36°56' E 013°44'1313.2
2017-Mar-23 15:33N 36°51' E 013°59'1313.0
2017-Mar-23 14:33N 36°45' E 014°14'1312.6
2017-Mar-23 13:34N 36°40' E 014°28'1312.6
2017-Mar-23 12:33N 36°38' E 014°44'1312.7
2017-Mar-23 11:33N 36°35' E 014°59'42711.8
2017-Mar-21 23:20N 37°15' E 023°51'1214.7
2017-Mar-21 22:33N 37°25' E 023°59'1814.7
2017-Mar-21 21:19N 37°41' E 024°11'1114.4
2017-Mar-21 20:33N 37°48' E 024°21'  

Dump ship's entire track history